Сообщение об ошибке

  • Warning: ini_set(): Headers already sent. You cannot change the session module's ini settings at this time in drupal_environment_initialize() (line 699 of /home/a/auditpro/2.auditpro.beget.tech/public_html/st/includes/bootstrap.inc).
  • Warning: ini_set(): Headers already sent. You cannot change the session module's ini settings at this time in drupal_environment_initialize() (line 700 of /home/a/auditpro/2.auditpro.beget.tech/public_html/st/includes/bootstrap.inc).
  • Warning: ini_set(): Headers already sent. You cannot change the session module's ini settings at this time in drupal_environment_initialize() (line 701 of /home/a/auditpro/2.auditpro.beget.tech/public_html/st/includes/bootstrap.inc).
  • Warning: ini_set(): Headers already sent. You cannot change the session module's ini settings at this time in drupal_environment_initialize() (line 704 of /home/a/auditpro/2.auditpro.beget.tech/public_html/st/includes/bootstrap.inc).
  • Warning: ini_set(): Headers already sent. You cannot change the session module's ini settings at this time in drupal_environment_initialize() (line 706 of /home/a/auditpro/2.auditpro.beget.tech/public_html/st/includes/bootstrap.inc).
  • Warning: ini_set(): Headers already sent. You cannot change the session module's ini settings at this time in include_once() (line 290 of /home/a/auditpro/2.auditpro.beget.tech/public_html/st/sites/default/settings.php).
  • Warning: ini_set(): Headers already sent. You cannot change the session module's ini settings at this time in include_once() (line 291 of /home/a/auditpro/2.auditpro.beget.tech/public_html/st/sites/default/settings.php).
  • Warning: ini_set(): Headers already sent. You cannot change the session module's ini settings at this time in include_once() (line 299 of /home/a/auditpro/2.auditpro.beget.tech/public_html/st/sites/default/settings.php).
  • Warning: ini_set(): Headers already sent. You cannot change the session module's ini settings at this time in include_once() (line 306 of /home/a/auditpro/2.auditpro.beget.tech/public_html/st/sites/default/settings.php).
  • Warning: ini_set(): Headers already sent. You cannot change the session module's ini settings at this time in drupal_settings_initialize() (line 826 of /home/a/auditpro/2.auditpro.beget.tech/public_html/st/includes/bootstrap.inc).
  • Warning: ini_set(): Headers already sent. You cannot change the session module's ini settings at this time in drupal_settings_initialize() (line 835 of /home/a/auditpro/2.auditpro.beget.tech/public_html/st/includes/bootstrap.inc).
  • Warning: session_name(): Cannot change session name when headers already sent in drupal_settings_initialize() (line 838 of /home/a/auditpro/2.auditpro.beget.tech/public_html/st/includes/bootstrap.inc).

НПС Мантурово

СКИДКИ НА СМАРТФОНЫ!

Карта отелей и гостиниц, располагающихся рядом с аэропортом НПС Мантурово :

НПС Мантурово Курская область 51° 26' 2.4396" N, 37° 6' 58.8384" E
Код аэродрома ИКАО
HH2S
Код аэродрома RU
ХХ2С
Координаты
N51.43401° E037.11634°
Превышение над уровнем моря
220
Основная полоса
12/30
Курс магнитный
114,7/294,7
Длина основной ВПП
14
Ширина основной ВПП
14
Покрытие основной ВПП
Твёрдое (железобетон)
Освещение ВПП
Нет
Тип: 
Вертодром
Класс аэродрома: 
Принадлежность: 
ГА
Статус: 
Действующий
Сайт: 
E-mail аэродрома: 
Страна: 
Россия
Регион: 
Курская область
Город: 
Дополнительная информация: 
Владелец ПП: нефтеперегонная станция ФЛ ОАО "МН "Дружба".

Скидки на навигаторы!

Найти трансфер

С помощью этой формы Вы можете найти трансфер из аэропорта НПС Мантурово в город, аэропорт или вокзал:

Погода в аэропортах:

Авиационная погода в Архангельске

Регион: 
Погода METAR: 
ULAA 301930Z 16005G10MPS 100V230 5000 -SN BKN011 M03/M04 Q0981 R08/590533 NOSIG RMK QFE734/0979
Время наблюдения
2023-01-30T19:30:00Z
Температура C
-3.0
Точка росы
-4.0
Направление ветра
160
Скорость ветра (узлы)
10
Метео видимость
3.11
Облачность
BKN
Нижняя граница облачности (футы)
1100
Явления погоды
-SN
Условия полета
MVFR
Аэропорт подробнее: 
BKN – значительная (рассеянная, разорванная) облачность;
-SN – слабый снег;

Авиационная погода в Брянске

Регион: 
Погода METAR: 
UUBP 301930Z AUTO 19006MPS 3400 -SN ///007 M02/M02 Q0999 NOSIG RMK QFE732/0976
Время наблюдения
2023-01-30T19:30:00Z
Температура C
-2.0
Точка росы
-2.0
Направление ветра
190
Скорость ветра (узлы)
12
Метео видимость
2.11
Облачность
Нижняя граница облачности (футы)
Явления погоды
-SN
Условия полета
Аэропорт подробнее: 
-SN – слабый снег;

Авиационная погода в Куусамо

Регион: 
Погода METAR: 
EFKS 301920Z 02007KT 9999 -SN OVC006 M03/M04 Q0971
Время наблюдения
2023-01-30T19:20:00Z
Температура C
-3.0
Точка росы
-4.0
Направление ветра
20
Скорость ветра (узлы)
7
Метео видимость
6.21
Облачность
OVC
Нижняя граница облачности (футы)
600
Явления погоды
-SN
Условия полета
IFR
OVC – сплошная облачность;
-SN – слабый снег;

Авиационная погода в Петропавловске

Регион: 
Погода METAR: 
UACP 301030Z 21005MPS 9999 -SN BKN048 M07/M10 Q1021 NOSIG RMK QFE753/1004
Время наблюдения
2023-01-30T10:30:00Z
Температура C
-7.0
Точка росы
-10.0
Направление ветра
210
Скорость ветра (узлы)
10
Метео видимость
6.21
Облачность
BKN
Нижняя граница облачности (футы)
4800
Явления погоды
-SN
Условия полета
VFR
Аэропорт подробнее: 
BKN – значительная (рассеянная, разорванная) облачность;
-SN – слабый снег;